Harrison, Arkansas
Current Conditions -  °F | °C
As of 3:53 PM on Sunday 25 Jan 2015 (Local Time) from KHRO Reporting Station
Overcast Overcast  
Wind Chill: 31°   Ceiling: 2300
Heat Index: 40°   Visibility: 10mi
Dew Point: 33°   Wind: 16mph
Humidity: 77%   Direction: 300°WNW
Pressure: 29.85"   Gusts: 28mph
Location:  36.23°N, 93.11°W
Report Text: KHRO 252153Z AUTO 30014G24KT 10SM OVC023 04/01 A2985 RMK AO2 PK WND 30028/2107 SLP109 T00440006
Loading
Personal Weather Stations






























Interactive Weather Map New forecast layout! Learn more

10-Day Weather Forecast

Advertisements
Track Severe Weather on mobile